Latest Weather Observations for Swan Hill

IDV60801

Issued at 3:22 pm EST Monday 20 May 2024 (issued every 10 minutes, with the page automatically refreshed every 10 minutes)

About weather observations | Map of weather stations | Latest weather observations for VIC | Other Formats
Station Details ID: 077094 Name: SWAN HILL AERODROME Lat: -35.38 Lon: 143.54 Height: 71.0 m
Data from the previous 72 hours. | See also: Recent months at Swan Hill
Date/Time
EST
Temp
°C
App
Temp
°C
Dew
Point
°C
Rel
Hum
%
Delta-T
°C
Wind Press
QNH
hPa
Press
MSL
hPa
Rain since
9am
mm
Dir  Spd
km/h
Gust
km/h
Spd
kts
Gust
kts
20/03:00pm 17.4 12.7 6.0 47 5.6 S 20 30 11 16 1026.4 1026.4 0.0
20/02:30pm 16.2 12.1 6.3 52 4.8 SSE 17 26 9 14 1026.3 1026.3 0.0
20/02:00pm 15.9 12.3 6.6 54 4.5 S 15 22 8 12 1026.4 1026.4 0.0
20/01:30pm 15.6 12.1 7.4 58 4.1 SSE 15 20 8 11 1026.6 1026.6 0.0
20/01:00pm 15.5 11.8 7.8 60 3.8 SSE 17 26 9 14 1026.9 1026.9 0.0
20/12:30pm 16.0 13.1 8.2 60 4.0 SSE 13 26 7 14 1027.1 1027.1 0.0
20/12:00pm 15.6 11.9 8.1 61 3.8 S 17 30 9 16 1027.4 1027.5 0.0
20/11:30am 15.0 11.2 7.5 61 3.7 S 17 24 9 13 1027.9 1028.0 0.0
20/11:00am 14.3 10.2 8.0 66 3.1 S 19 28 10 15 1028.1 1028.2 0.0
20/10:30am 13.8 10.5 8.0 68 2.9 S 15 26 8 14 1028.1 1028.2 0.0
20/10:00am 12.6 8.8 7.7 72 2.4 S 17 24 9 13 1028.0 1028.1 0.0
20/09:30am 11.4 7.3 7.9 79 1.7 SSW 19 26 10 14 1027.8 1027.9 0.0
20/09:00am 10.7 6.6 7.9 83 1.4 SSW 19 28 10 15 1027.7 1027.8 0.0
20/08:30am 9.4 6.4 7.7 89 0.8 SSW 13 19 7 10 1027.3 1027.4 0.0
20/08:00am 8.2 5.1 7.1 93 0.5 SW 13 19 7 10 1027.2 1027.3 0.0
20/07:30am 7.8 4.2 6.7 93 0.5 SW 15 20 8 11 1026.8 1026.8 0.0
20/07:00am 8.2 4.3 7.1 93 0.5 SW 17 24 9 13 1026.7 1026.7 0.0
20/06:30am 8.7 5.2 7.3 91 0.7 SW 15 19 8 10 1026.2 1026.2 0.0
20/06:00am 9.2 6.2 7.8 91 0.7 SW 13 19 7 10 1026.2 1026.2 0.0
20/05:30am 9.2 5.5 8.0 92 0.6 SW 17 22 9 12 1026.0 1026.0 0.0
20/05:00am 9.0 5.6 7.8 92 0.6 SW 15 19 8 10 1025.7 1025.7 0.0
20/04:30am 9.5 5.8 7.9 90 0.8 SW 17 22 9 12 1025.5 1025.5 0.0
20/04:00am 10.2 6.6 8.3 88 0.9 SW 17 20 9 11 1025.5 1025.5 0.0
20/03:30am 10.7 7.2 8.6 87 1.0 SW 17 20 9 11 1025.6 1025.6 0.0
20/03:00am 11.0 7.5 8.9 87 1.0 SW 17 24 9 13 1025.6 1025.6 0.0
20/02:30am 11.3 7.9 9.0 86 1.1 SW 17 22 9 12 1025.7 1025.7 0.0
20/02:00am 11.7 8.4 9.4 86 1.2 SW 17 22 9 12 1025.6 1025.6 0.0
20/01:30am 11.8 8.8 9.4 85 1.2 SW 15 20 8 11 1025.3 1025.3 0.0
20/01:00am 12.5 8.8 9.5 82 1.5 SW 19 28 10 15 1025.2 1025.2 0.0
20/12:30am 12.7 9.4 9.5 81 1.6 SW 17 24 9 13 1025.2 1025.2 0.0
20/12:00am 12.8 9.0 9.8 82 1.5 SW 20 28 11 15 1025.4 1025.4 0.0
 
Date/Time
EST
Temp
°C
App
Temp
°C
Dew
Point
°C
Rel
Hum
%
Delta-T
°C
Wind Press
QNH
hPa
Press
MSL
hPa
Rain since
9am
mm
Dir  Spd
km/h
Gust
km/h
Spd
kts
Gust
kts
19/11:30pm 12.3 8.7 9.7 84 1.3 SW 19 26 10 14 1025.5 1025.5 0.0
19/11:00pm 12.3 9.0 9.5 83 1.4 WSW 17 20 9 11 1025.7 1025.7 0.0
19/10:30pm 13.4 8.4 9.5 77 2.0 WSW 26 33 14 18 1025.7 1025.7 0.0
19/10:00pm 13.9 9.6 9.5 75 2.2 WSW 22 30 12 16 1025.9 1025.9 0.0
19/09:30pm 13.9 8.9 7.9 67 3.0 WSW 24 30 13 16 1026.0 1026.0 0.0
19/09:00pm 13.5 9.2 7.1 65 3.1 W 19 24 10 13 1025.8 1025.8 0.0
19/08:30pm 13.9 9.6 7.0 63 3.4 W 19 22 10 12 1025.9 1025.9 0.0
19/08:00pm 14.0 10.1 7.1 63 3.4 W 17 20 9 11 1025.8 1025.8 0.0
19/07:30pm 13.9 10.4 7.2 64 3.3 W 15 19 8 10 1025.8 1025.8 0.0
19/07:00pm 13.6 10.0 6.9 64 3.2 W 15 20 8 11 1025.8 1025.8 0.0
19/06:30pm 14.0 10.9 7.1 63 3.4 W 13 15 7 8 1025.5 1025.5 0.0
19/06:00pm 13.6 10.7 6.5 62 3.4 WSW 11 15 6 8 1025.4 1025.4 0.0
19/05:30pm 15.1 11.1 6.7 57 4.1 SW 17 22 9 12 1025.2 1025.2 0.0
19/05:00pm 16.1 11.8 6.8 54 4.6 SW 19 26 10 14 1025.0 1025.0 0.0
19/04:30pm 16.7 12.4 6.8 52 4.9 WSW 19 24 10 13 1025.0 1025.0 0.0
19/04:00pm 16.5 12.0 6.9 53 4.7 SW 20 28 11 15 1025.0 1025.0 0.0
19/03:30pm 16.4 11.9 7.1 54 4.6 SW 20 30 11 16 1025.2 1025.2 0.0
19/03:00pm 16.9 12.3 6.7 51 5.0 SW 20 32 11 17 1025.1 1025.1 0.0
19/02:30pm 16.4 11.9 6.8 53 4.7 SW 20 28 11 15 1025.2 1025.2 0.0
19/02:00pm 15.8 10.3 6.0 52 4.7 SW 24 35 13 19 1025.5 1025.5 0.0
19/01:30pm 16.7 11.2 5.9 49 5.3 SW 24 33 13 18 1025.9 1025.9 0.0
19/01:00pm 15.3 10.2 6.1 54 4.4 SW 22 30 12 16 1026.3 1026.3 0.0
19/12:30pm 15.1 10.4 5.9 54 4.4 SW 20 28 11 15 1026.9 1026.9 0.0
19/12:00pm 14.1 9.3 5.7 57 4.0 SW 20 32 11 17 1027.5 1027.6 0.0
19/11:30am 12.5 7.9 5.4 62 3.3 WSW 19 28 10 15 1028.0 1028.1 0.0
19/11:00am 12.3 8.3 4.8 60 3.4 W 15 20 8 11 1028.4 1028.5 0.0
19/10:30am 10.9 6.4 4.4 64 2.9 W 17 20 9 11 1028.6 1028.7 0.0
19/10:00am 9.4 5.6 4.0 69 2.4 WNW 13 17 7 9 1028.7 1028.8 0.0
19/09:30am 7.8 4.4 4.0 77 1.6 WSW 11 13 6 7 1029.1 1029.2 0.0
19/09:00am 6.2 2.9 2.7 78 1.4 WSW 9 13 5 7 1029.1 1029.2 0.0
19/08:30am 4.6 1.6 2.1 84 1.0 SW 7 11 4 6 1029.0 1029.1 0.0
19/08:00am 2.8 -0.4 0.7 86 0.8 SSW 7 11 4 6 1029.4 1029.5 0.0
19/07:30am 1.7 -2.8 -0.4 86 0.8 WSW 13 15 7 8 1029.0 1029.1 0.0
19/07:00am 1.9 -2.2 -0.5 84 0.9 SW 11 13 6 7 1028.4 1028.5 0.0
19/06:30am 1.8 -2.8 -0.8 83 0.9 SW 13 17 7 9 1028.3 1028.4 0.0
19/06:00am 1.5 -2.3 -1.1 83 0.9 SW 9 11 5 6 1028.4 1028.5 0.0
19/05:30am 1.7 -2.1 -0.9 83 0.9 SW 9 9 5 5 1028.4 1028.5 0.0
19/05:00am 2.1 -1.7 -0.8 81 1.0 SW 9 11 5 6 1028.2 1028.3 0.0
19/04:30am 2.0 -1.4 -0.7 82 1.0 SSW 7 11 4 6 1028.1 1028.2 0.0
19/04:00am 2.8 -0.9 -0.3 80 1.1 SSW 9 11 5 6 1028.3 1028.4 0.0
19/03:30am 2.2 -1.6 -0.5 82 1.0 SSW 9 13 5 7 1028.4 1028.5 0.0
19/03:00am 0.9 -1.6 -0.9 88 0.6 SSW 2 9 1 5 1028.6 1028.7 0.0
19/02:30am 1.3 -1.9 -0.8 86 0.8 SSW 6 6 3 3 1028.5 1028.6 0.0
19/02:00am 2.1 -1.1 -0.5 83 0.9 SSW 6 9 3 5 1028.7 1028.8 0.0
19/01:30am 1.9 -1.5 -0.7 83 0.9 SSW 7 9 4 5 1028.6 1028.7 0.0
19/01:00am 1.8 -0.6 -0.6 84 0.9 SSW 2 6 1 3 1028.6 1028.7 0.0
19/12:30am 3.1 0.7 0.0 80 1.2 SSW 2 11 1 6 1028.8 1028.9 0.0
19/12:00am 3.5 0.3 -0.3 76 1.4 SSW 6 7 3 4 1029.0 1029.1 0.0
 
Date/Time
EST
Temp
°C
App
Temp
°C
Dew
Point
°C
Rel
Hum
%
Delta-T
°C
Wind Press
QNH
hPa
Press
MSL
hPa
Rain since
9am
mm
Dir  Spd
km/h
Gust
km/h
Spd
kts
Gust
kts
18/11:30pm 3.3 0.5 -0.3 77 1.3 SSW 4 7 2 4 1029.2 1029.3 0.0
18/11:00pm 5.5 1.5 0.5 70 1.9 SSW 11 13 6 7 1029.3 1029.4 0.0
18/10:30pm 5.0 1.4 0.6 73 1.7 SSW 9 13 5 7 1029.7 1029.8 0.0
18/10:00pm 5.0 2.3 0.0 70 1.9 SSW 4 6 2 3 1029.7 1029.8 0.0
18/09:30pm 6.6 3.3 0.3 64 2.5 SSW 7 9 4 5 1030.0 1030.1 0.0
18/09:00pm 6.6 3.0 0.7 66 2.3 S 9 19 5 10 1029.9 1030.0 0.0
18/08:30pm 6.1 2.8 0.0 65 2.4 S 7 11 4 6 1029.9 1030.0 0.0
18/08:00pm 7.1 3.8 0.3 62 2.7 SSW 7 11 4 6 1029.7 1029.8 0.0
18/07:30pm 7.4 4.3 0.2 60 2.8 SSW 6 9 3 5 1030.0 1030.1 0.0
18/07:00pm 9.0 5.3 0.2 54 3.5 SSW 9 13 5 7 1029.8 1029.9 0.0
18/06:30pm 9.2 5.6 0.4 54 3.6 S 9 13 5 7 1029.5 1029.6 0.0
18/06:00pm 10.8 7.2 0.8 50 4.1 S 9 11 5 6 1029.4 1029.5 0.0
18/05:30pm 12.0 8.4 0.8 46 4.7 S 9 13 5 7 1029.4 1029.5 0.0
18/05:00pm 13.5 8.4 0.9 42 5.3 S 17 24 9 13 1029.7 1029.8 0.0
18/04:30pm 14.0 9.3 1.0 41 5.6 S 15 22 8 12 1029.7 1029.8 0.0
18/04:00pm 14.8 9.8 1.3 40 5.8 S 17 26 9 14 1029.6 1029.7 0.0
18/03:30pm 14.8 9.6 0.3 37 6.2 S 17 28 9 15 1029.8 1029.9 0.0
18/03:00pm 14.9 9.5 1.1 39 5.9 SSE 19 30 10 16 1029.9 1030.0 0.0
18/02:30pm 14.8 9.2 1.3 40 5.9 SSE 20 33 11 18 1030.0 1030.1 0.0
18/02:00pm 14.6 9.0 1.2 40 5.8 SSE 20 30 11 16 1030.3 1030.4 0.0
18/01:30pm 14.6 9.2 1.2 40 5.8 SSE 19 28 10 15 1030.6 1030.7 0.0
18/01:00pm 14.2 8.5 0.8 40 5.7 SSE 20 35 11 19 1031.0 1031.1 0.0
18/12:30pm 14.0 8.4 1.3 42 5.5 SE 20 32 11 17 1031.4 1031.5 0.0
18/12:00pm 13.2 7.0 -0.1 40 5.5 SSE 22 37 12 20 1031.8 1031.9 0.0
18/11:30am 13.0 6.7 1.4 45 5.0 SSE 24 39 13 21 1032.1 1032.2 0.0
18/11:00am 12.3 5.6 1.3 47 4.6 SSE 26 43 14 23 1032.3 1032.4 0.0
18/10:30am 12.1 6.8 2.8 53 4.1 SSE 20 35 11 19 1032.3 1032.4 0.0
18/10:00am 11.0 6.0 4.5 64 2.9 S 20 28 11 15 1032.6 1032.7 0.0
18/09:30am 9.8 5.0 4.6 70 2.3 S 19 28 10 15 1032.5 1032.6 0.0
18/09:00am 8.3 3.9 4.5 77 1.7 S 17 26 9 14 1032.4 1032.5 0.0
18/08:30am 7.1 3.4 4.2 82 1.3 S 13 20 7 11 1032.3 1032.4 0.0
18/08:00am 6.1 2.3 3.9 86 0.9 SSW 13 20 7 11 1031.9 1032.0 0.0
18/07:30am 5.5 1.6 3.5 87 0.8 SSW 13 19 7 10 1031.6 1031.7 0.0
18/07:00am 5.6 2.1 3.6 87 0.8 SSW 11 17 6 9 1031.4 1031.5 0.0
18/06:30am 5.4 1.5 3.6 88 0.8 S 13 19 7 10 1031.0 1031.1 0.0
18/06:00am 5.0 1.8 3.2 88 0.7 S 9 15 5 8 1030.8 1030.9 0.0
18/05:30am 5.8 2.4 3.8 87 0.8 S 11 19 6 10 1030.8 1030.9 0.0
18/05:00am 6.6 2.9 4.4 86 0.9 SSW 13 19 7 10 1030.5 1030.6 0.0
18/04:30am 7.0 3.4 4.8 86 1.0 S 13 17 7 9 1030.2 1030.3 0.0
18/04:00am 7.4 3.4 4.7 83 1.2 S 15 22 8 12 1030.0 1030.1 0.0
18/03:30am 8.1 3.7 5.0 81 1.4 S 17 24 9 13 1030.1 1030.2 0.0
18/03:00am 8.7 3.4 5.1 78 1.6 S 22 32 12 17 1030.1 1030.2 0.0
18/02:30am 6.9 3.6 4.6 85 1.0 S 11 20 6 11 1030.1 1030.2 0.0
18/02:00am 7.7 4.0 4.7 81 1.3 S 13 22 7 12 1030.1 1030.2 0.0
18/01:30am 7.3 3.6 4.4 82 1.3 SSW 13 20 7 11 1030.0 1030.1 0.0
18/01:00am 7.4 4.1 4.5 82 1.3 SSW 11 17 6 9 1030.1 1030.2 0.0
18/12:30am 8.0 4.8 5.1 82 1.3 S 11 15 6 8 1030.2 1030.3 0.0
18/12:00am 8.2 5.1 5.5 83 1.2 SSW 11 15 6 8 1030.4 1030.5 0.0
 
Date/Time
EST
Temp
°C
App
Temp
°C
Dew
Point
°C
Rel
Hum
%
Delta-T
°C
Wind Press
QNH
hPa
Press
MSL
hPa
Rain since
9am
mm
Dir  Spd
km/h
Gust
km/h
Spd
kts
Gust
kts
17/11:30pm 9.3 6.3 5.9 79 1.6 S 11 17 6 9 1030.3 1030.4 0.0
17/11:00pm 9.9 6.3 6.8 81 1.4 S 15 20 8 11 1030.0 1030.1 0.0
17/10:30pm 11.0 7.4 6.9 76 2.0 S 15 20 8 11 1029.9 1030.0 0.0
17/10:00pm 11.8 7.9 6.9 72 2.3 SSE 17 22 9 12 1029.7 1029.8 0.0
17/09:30pm 12.9 8.6 7.1 68 2.8 S 19 26 10 14 1029.5 1029.6 0.0
17/09:00pm 12.8 9.8 7.7 71 2.5 S 13 20 7 11 1029.3 1029.4 0.0
17/08:30pm 12.8 9.0 7.7 71 2.5 SSE 17 22 9 12 1028.9 1029.0 0.0
17/08:00pm 13.4 9.2 7.4 67 2.9 S 19 28 10 15 1028.6 1028.7 0.0
17/07:30pm 13.1 9.6 7.1 67 2.9 SW 15 19 8 10 1028.1 1028.2 0.0
17/07:00pm 13.9 10.4 7.4 65 3.2 SW 15 19 8 10 1027.7 1027.8 0.0
17/06:30pm 14.8 11.0 7.4 61 3.7 SW 17 20 9 11 1027.5 1027.6 0.0
17/06:00pm 15.8 11.6 7.6 58 4.1 SW 19 26 10 14 1027.3 1027.4 0.0
17/05:30pm 16.7 12.4 7.9 56 4.5 SW 20 30 11 16 1026.9 1026.9 0.0
17/05:00pm 18.1 12.6 7.5 50 5.3 SW 26 35 14 19 1026.7 1026.7 0.0
17/04:30pm 18.7 13.0 8.4 51 5.3 SW 28 41 15 22 1026.5 1026.5 0.0
17/04:00pm 19.2 15.1 8.5 50 5.5 SSW 20 30 11 16 1026.6 1026.6 0.0
17/03:30pm 19.5 14.1 7.9 47 6.0 SSW 26 37 14 20 1026.3 1026.3 0.0

Other formats

Comma delimited format used in spreadsheet applications
http://www.bom.gov.au/fwo/IDV60801/IDV60801.94843.axf

JavaScript Object Notation format (JSON) in row-major order
http://www.bom.gov.au/fwo/IDV60801/IDV60801.94843.json

Data quality

Most of these data are generated automatically and are frequently updated. Quality checks on data are not normally performed. It is possible for incorrect values to appear. Refer to information at About Latest Weather Observations and please check the disclaimer before using these data.